Latest Coastal Weather Observations for Double Island Point

IDQ60701

Issued at 3:21 am EST Sunday 25 June 2017 (issued every 10 minutes, with the page automatically refreshed every 10 minutes)

About coastal observations | Map of coastal stations | Coastal observations for QLD | Marine services | Other Formats
Station Details ID: 040068 Name: DOUBLE ISLAND POINT LIGHTHOUSE Lat: -25.93 Lon: 153.19 Height: 95.64 m
Data from the previous 72 hours. | See also: Recent months at Double Island Point
Date/Time
EST
Temp
°C
Wind Pressure Rain since
9am
mm
Weather Cloud Vis
km
Sea
Height
m
Swell
Dir  Spd
kts
Gust
kts
hPa Trend Height
m
Period
s
Dir
25/03:00am 17.9 WNW 11 13 1017.5 - 0.0 - - - - - - -
25/02:30am 18.0 WNW 11 13 1017.8 - 0.0 - - - - - - -
25/02:00am 18.1 WNW 11 12 1017.8 - 0.0 - - - - - - -
25/01:30am 18.3 WNW 11 13 1017.9 - 0.0 - - - - - - -
25/01:00am 18.2 WNW 11 13 1018.1 - 0.0 - - - - - - -
25/12:30am 18.3 WNW 11 13 1018.2 - 0.0 - - - - - - -
25/12:00am 18.2 WNW 11 12 1018.2 - 0.0 - - - - - - -
 
Date/Time
EST
Temp
°C
Wind Pressure Rain since
9am
mm
Weather Cloud Vis
km
Sea
Height
m
Swell
Dir  Spd
kts
Gust
kts
hPa Trend Height
m
Period
s
Dir
24/11:30pm 18.3 WNW 11 12 1018.2 - 0.0 - - - - - - -
24/11:00pm 18.2 WNW 11 13 1018.4 - 0.0 - - - - - - -
24/10:30pm 18.5 NW 9 10 1018.5 - 0.0 - - - - - - -
24/10:00pm 18.7 NNW 7 7 1018.5 - 0.0 - - - - - - -
24/09:30pm 19.3 E 4 5 1018.4 - 0.0 - - - - - - -
24/09:00pm 19.3 E 4 4 1018.4 - 0.0 - - - - - - -
24/08:30pm 19.9 E 5 5 1018.2 - 0.0 - - - - - - -
24/08:00pm 19.8 E 6 7 1018.1 - 0.0 - - - - - - -
24/07:30pm 20.2 E 4 5 1017.6 - 0.0 - - - - - - -
24/07:00pm 20.1 ENE 4 5 1017.3 - 0.0 - - - - - - -
24/06:30pm 20.0 ENE 5 5 1017.3 - 0.0 - - - - - - -
24/06:00pm 19.8 ENE 5 5 1017.0 - 0.0 - - - - - - -
24/05:30pm 20.0 ENE 6 7 1016.7 - 0.0 - - - - - - -
24/05:00pm 20.5 E 6 7 1016.3 - 0.0 - - - - - - -
24/04:30pm 21.0 ESE 6 8 1016.2 - 0.0 - - - - - - -
24/04:00pm 20.8 SE 7 8 1016.0 - 0.0 - - - - - - -
24/03:30pm 21.0 SE 9 10 1015.9 - 0.0 - - - - - - -
24/03:00pm 21.2 SE 10 11 1015.7 - 0.0 - - - - - - -
24/02:30pm 21.8 SSE 8 10 1015.7 - 0.0 - - - - - - -
24/02:00pm 22.7 WSW 5 7 1015.7 - 0.0 - - - - - - -
24/01:30pm 23.4 WNW 6 10 1015.6 - 0.0 - - - - - - -
24/01:00pm 22.8 W 8 11 1015.8 - 0.0 - - - - - - -
24/12:30pm 22.6 WNW 7 12 1016.3 - 0.0 - - - - - - -
24/12:00pm 21.8 WNW 8 14 1016.8 - 0.0 - - - - - - -
24/11:30am 21.0 WNW 9 15 1017.4 - 0.0 - - - - - - -
24/11:00am 20.9 NW 9 15 1017.9 - 0.0 - - - - - - -
24/10:30am 20.3 NW 13 17 1018.2 - 0.0 - - - - - - -
24/10:00am 19.8 NW 13 17 1018.4 - 0.0 - - - - - - -
24/09:30am 19.3 NW 12 16 1018.6 - 0.0 - - - - - - -
24/09:00am 18.9 NW 13 17 1018.6 - 0.0 - - - - - - -
24/08:30am 18.3 NW 14 18 1018.4 - 0.0 - - - - - - -
24/08:00am 17.9 NW 13 17 1018.2 - 0.0 - - - - - - -
24/07:30am 17.2 WNW 14 17 1018.1 - 0.0 - - - - - - -
24/07:00am 17.0 WNW 16 19 1017.8 - 0.0 - - - - - - -
24/06:30am 16.8 NW 14 20 1017.6 - 0.0 - - - - - - -
24/06:00am 16.9 WNW 17 20 1017.2 - 0.0 - - - - - - -
24/05:30am 17.0 WNW 17 20 1017.0 - 0.0 - - - - - - -
24/05:00am 16.4 NW 14 18 1017.0 - 0.0 - - - - - - -
24/04:30am 16.6 NW 14 17 1016.9 - 0.0 - - - - - - -
24/04:00am 16.2 NW 13 17 1016.9 - 0.0 - - - - - - -
24/03:30am 16.2 NW 13 16 1017.1 - 0.0 - - - - - - -
24/03:00am 16.3 NW 12 14 1017.3 - 0.0 - - - - - - -
24/02:30am 16.5 NW 12 15 1017.4 - 0.0 - - - - - - -
24/02:00am 16.9 NW 12 14 1017.5 - 0.0 - - - - - - -
24/01:30am 16.7 NW 12 15 1017.6 - 0.0 - - - - - - -
24/01:00am 16.9 NW 11 13 1018.0 - 0.0 - - - - - - -
24/12:30am 17.2 NW 11 13 1018.3 - 0.0 - - - - - - -
24/12:00am 17.6 NW 10 12 1018.4 - 0.0 - - - - - - -
 
Date/Time
EST
Temp
°C
Wind Pressure Rain since
9am
mm
Weather Cloud Vis
km
Sea
Height
m
Swell
Dir  Spd
kts
Gust
kts
hPa Trend Height
m
Period
s
Dir
23/11:30pm 17.9 ENE 6 8 1018.7 - 0.0 - - - - - - -
23/11:00pm 18.3 SE 4 6 1019.0 - 0.0 - - - - - - -
23/10:30pm 18.0 SE 5 6 1019.1 - 0.0 - - - - - - -
23/10:00pm 18.3 SE 5 6 1019.4 - 0.0 - - - - - - -
23/09:30pm 18.9 SE 4 5 1019.5 - 0.0 - - - - - - -
23/09:00pm 18.8 SE 4 5 1019.6 - 0.0 - - - - - - -
23/08:30pm 19.0 SE 5 7 1019.5 - 0.0 - - - - - - -
23/08:00pm 18.8 SE 4 5 1019.7 - 0.0 - - - - - - -
23/07:30pm 18.9 SE 5 7 1019.6 - 0.0 - - - - - - -
23/07:00pm 18.9 SSE 4 6 1019.5 - 0.0 - - - - - - -
23/06:30pm 18.9 SSE 6 7 1019.2 - 0.0 - - - - - - -
23/06:00pm 18.9 SSE 7 9 1019.0 - 0.0 - - - - - - -
23/05:30pm 18.7 SSE 8 9 1018.6 - 0.0 - - - - - - -
23/05:00pm 18.7 SSE 8 10 1018.4 - 0.0 - - - - - - -
23/04:30pm 19.0 SSE 9 11 1018.4 - 0.0 - - - - - - -
23/04:00pm 19.1 SSE 11 12 1018.3 - 0.0 - - - - - - -
23/03:30pm 19.2 SSE 11 13 1018.4 - 0.0 - - - - - - -
23/03:00pm 19.4 SSE 11 12 1018.5 - 0.0 - - - - - - -
23/02:30pm 19.6 SSE 11 13 1018.6 - 0.0 - - - - - - -
23/02:00pm 19.7 SSE 11 13 1018.8 - 0.0 - - - - - - -
23/01:30pm 19.9 SSE 11 14 1019.2 - 0.0 - - - - - - -
23/01:00pm 19.8 S 11 14 1019.4 - 0.0 - - - - - - -
23/12:30pm 19.8 S 12 15 1020.0 - 0.0 - - - - - - -
23/12:00pm 19.7 S 13 17 1020.6 - 0.0 - - - - - - -
23/11:30am 19.5 S 13 16 1021.3 - 0.0 - - - - - - -
23/11:00am 19.4 S 13 17 1021.7 - 0.0 - - - - - - -
23/10:30am 19.1 S 14 17 1022.0 - 0.0 - - - - - - -
23/10:00am 18.9 S 14 18 1022.2 - 0.0 - - - - - - -
23/09:30am 18.6 S 16 22 1022.2 - 0.0 - - - - - - -
23/09:00am 18.4 SSW 16 20 1022.2 - 0.4 - - - - - - -
23/08:30am 18.0 SSW 12 15 1022.1 - 0.4 - - - - - - -
23/08:00am 17.2 SSW 13 17 1021.7 - 0.4 - - - - - - -
23/07:30am 17.0 S 13 17 1021.5 - 0.4 - - - - - - -
23/07:00am 16.6 S 15 18 1021.1 - 0.4 - - - - - - -
23/06:30am 16.5 S 15 18 1021.1 - 0.4 - - - - - - -
23/06:00am 16.9 S 15 18 1020.9 - 0.4 - - - - - - -
23/05:30am 16.5 SSW 13 16 1020.7 - 0.4 - - - - - - -
23/05:00am 17.2 S 16 20 1020.6 - 0.4 - - - - - - -
23/04:30am 16.9 S 14 18 1020.6 - 0.4 - - - - - - -
23/04:00am 16.7 SSW 12 15 1020.7 - 0.4 - - - - - - -
23/03:30am 16.6 SSW 13 15 1020.8 - 0.4 - - - - - - -
23/03:00am 16.4 SSW 12 15 1021.0 - 0.4 - - - - - - -
23/02:30am 16.9 SSW 12 15 1021.1 - 0.4 - - - - - - -
23/02:00am 17.7 S 11 15 1021.2 - 0.4 - - - - - - -
23/01:30am 19.0 SSE 13 16 1021.4 - 0.4 - - - - - - -
23/01:00am 19.0 SE 14 17 1021.7 - 0.4 - - - - - - -
23/12:30am 18.2 S 11 13 1022.0 - 0.4 - - - - - - -
23/12:00am 19.1 SSE 13 16 1022.2 - 0.4 - - - - - - -
 
Date/Time
EST
Temp
°C
Wind Pressure Rain since
9am
mm
Weather Cloud Vis
km
Sea
Height
m
Swell
Dir  Spd
kts
Gust
kts
hPa Trend Height
m
Period
s
Dir
22/11:30pm 19.2 SSE 16 18 1022.7 - 0.4 - - - - - - -
22/11:00pm 19.3 SSE 16 19 1022.7 - 0.4 - - - - - - -
22/10:30pm 19.3 SSE 15 19 1022.9 - 0.4 - - - - - - -
22/10:00pm 19.4 SSE 17 21 1023.0 - 0.4 - - - - - - -
22/09:30pm 19.2 SSE 19 21 1023.0 - 0.4 - - - - - - -
22/09:00pm 19.4 SSE 19 22 1023.0 - 0.4 - - - - - - -
22/08:30pm 19.4 SSE 17 20 1023.2 - 0.4 - - - - - - -
22/08:00pm 19.4 SSE 19 22 1023.1 - 0.4 - - - - - - -
22/07:30pm 19.4 SSE 19 25 1023.0 - 0.4 - - - - - - -
22/07:00pm 19.3 SSE 20 23 1022.8 - 0.4 - - - - - - -
22/06:30pm 19.3 SSE 22 27 1022.5 - 0.4 - - - - - - -
22/06:00pm 19.3 S 22 27 1022.0 - 0.4 - - - - - - -
22/05:30pm 18.9 S 22 27 1021.8 - 0.4 - - - - - - -
22/05:00pm 18.9 S 22 27 1021.7 - 0.4 - - - - - - -
22/04:30pm 18.8 S 22 29 1021.6 - 0.4 - - - - - - -
22/04:15pm 18.4 S 20 30 1021.4 - 0.4 - - - - - - -
22/04:00pm 19.0 S 17 22 1021.7 - 0.0 - - - - - - -
22/03:30pm 19.5 S 20 25 1021.3 - 0.0 - - - - - - -
22/03:00pm 19.4 S 21 27 1021.2 - 0.0 - - - - - - -
22/02:30pm 19.5 S 19 25 1021.5 - 0.0 - - - - - - -
22/02:00pm 19.6 S 19 24 1021.6 - 0.0 - - - - - - -
22/01:30pm 19.4 S 19 24 1021.9 - 0.0 - - - - - - -
22/01:00pm 19.4 S 20 26 1022.1 - 0.0 - - - - - - -
22/12:30pm 19.1 S 21 28 1022.5 - 0.0 - - - - - - -
22/12:00pm 19.3 S 22 28 1022.8 - 0.0 - - - - - - -
22/11:30am 19.3 S 23 30 1023.0 - 0.0 - - - - - - -
22/11:00am 19.3 S 24 33 1023.5 - 0.0 - - - - - - -
22/10:30am 18.8 S 24 31 1023.5 - 0.0 - - - - - - -
22/10:00am 18.9 S 25 31 1023.7 - 0.0 - - - - - - -
22/09:30am 19.1 S 24 31 1023.8 - 0.0 - - - - - - -
22/09:00am 18.8 S 23 29 1023.8 - 0.0 - - - - - - -
22/08:30am 18.6 S 25 31 1023.4 - 0.0 - - - - - - -
22/08:00am 18.7 S 24 32 1023.1 - 0.0 - - - - - - -
22/07:30am 18.5 S 27 34 1022.6 - 0.0 - - - - - - -
22/07:00am 18.7 S 26 32 1022.3 - 0.0 - - - - - - -
22/06:30am 18.4 S 24 29 1022.3 - 0.0 - - - - - - -
22/06:00am 18.1 S 23 29 1021.7 - 0.0 - - - - - - -
22/05:30am 18.1 S 26 34 1021.3 - 0.0 - - - - - - -
22/05:00am 18.3 S 26 32 1021.0 - 0.0 - - - - - - -
22/04:30am 17.9 S 24 30 1021.0 - 0.0 - - - - - - -
22/04:00am 18.6 S 24 29 1021.0 - 0.0 - - - - - - -
22/03:30am 18.6 S 25 31 1021.0 - 0.0 - - - - - - -

Other Formats:

Comma delimited format used in spreadsheet applications
http://www.bom.gov.au/fwo/IDQ60701/IDQ60701.94584.axf

JavaScript Object Notation format (JSON) in row-major order
http://www.bom.gov.au/fwo/IDQ60701/IDQ60701.94584.json